Time;durP1;ratioP1;P1;durP2;ratioP2;P2;SDS_P1;SDS_P2;PMS_P1;PMS_P2;Temp;Humidity;BMP_temperature;BMP_pressure;BME280_temperature;BME280_humidity;BME280_pressure;Samples;Min_cycle;Max_cycle;Signal;HPM_P1;HPM_P2
2023/04/09 00:00:10;;;;;;;18.55;11.52;;;;;;;1.66;100.00;97921.56;5016622;28;20128;-58
2023/04/09 00:02:39;;;;;;;17.17;11.23;;;;;;;1.55;100.00;97922.84;5022423;28;20123;-58
2023/04/09 00:05:06;;;;;;;16.85;11.85;;;;;;;1.49;100.00;97919.06;5021282;28;20049;-56
2023/04/09 00:07:33;;;;;;;16.67;11.10;;;;;;;1.54;100.00;97924.66;5020182;28;20033;-56
2023/04/09 00:10:00;;;;;;;16.75;11.02;;;;;;;1.69;100.00;97921.19;5022010;28;20100;-57
2023/04/09 00:12:26;;;;;;;15.00;10.07;;;;;;;1.65;100.00;97918.06;5021636;28;20045;-57
2023/04/09 00:14:54;;;;;;;15.07;10.25;;;;;;;1.67;100.00;97916.03;5022716;28;20045;-58
2023/04/09 00:17:20;;;;;;;15.63;10.43;;;;;;;1.62;100.00;97914.94;5021552;28;20041;-56
2023/04/09 00:19:47;;;;;;;19.13;10.82;;;;;;;1.52;100.00;97923.19;5021433;28;20045;-57
2023/04/09 00:22:14;;;;;;;15.48;10.88;;;;;;;1.44;100.00;97918.75;5022764;28;20049;-58
2023/04/09 00:24:41;;;;;;;17.75;11.80;;;;;;;1.41;100.00;97919.94;5029913;28;20061;-58
2023/04/09 00:27:07;;;;;;;14.52;10.63;;;;;;;1.36;100.00;97919.63;5022745;28;20041;-58
2023/04/09 00:29:33;;;;;;;20.27;11.65;;;;;;;1.35;100.00;97904.66;5020452;28;20472;-58
2023/04/09 00:32:00;;;;;;;20.15;11.95;;;;;;;1.34;100.00;97916.34;5021523;28;20125;-58
2023/04/09 00:34:27;;;;;;;18.48;11.52;;;;;;;1.39;100.00;97913.97;5025976;28;20045;-58
2023/04/09 00:36:53;;;;;;;16.65;10.65;;;;;;;1.34;100.00;97911.00;5025762;28;20525;-58
2023/04/09 00:39:20;;;;;;;18.15;11.32;;;;;;;1.35;100.00;97911.81;5029091;28;20575;-58
2023/04/09 00:41:46;;;;;;;17.23;10.98;;;;;;;1.33;100.00;97904.00;5024360;28;20146;-58
2023/04/09 00:44:13;;;;;;;15.10;10.45;;;;;;;1.36;100.00;97903.63;5026260;28;20510;-58
2023/04/09 00:46:39;;;;;;;15.75;10.75;;;;;;;1.36;100.00;97905.50;5025185;28;20041;-57
2023/04/09 00:49:06;;;;;;;16.05;10.10;;;;;;;1.49;100.00;97902.19;5031301;28;20529;-57
2023/04/09 00:51:34;;;;;;;14.45;9.52;;;;;;;1.52;100.00;97897.31;5023621;28;20159;-56
2023/04/09 00:54:01;;;;;;;17.65;10.95;;;;;;;1.42;100.00;97904.75;5026527;28;20103;-58
2023/04/09 00:56:29;;;;;;;16.05;11.00;;;;;;;1.26;100.00;97903.06;5024325;28;20427;-58
2023/04/09 00:58:56;;;;;;;16.88;11.25;;;;;;;1.32;100.00;97902.31;5023821;28;20126;-56
2023/04/09 01:01:22;;;;;;;19.27;12.25;;;;;;;1.42;100.00;97912.75;5020066;28;20065;-56
2023/04/09 01:03:49;;;;;;;17.55;11.13;;;;;;;1.36;100.00;97902.81;5022181;28;20555;-57
2023/04/09 01:06:15;;;;;;;18.80;11.93;;;;;;;1.30;100.00;97909.69;5023429;28;20510;-57
2023/04/09 01:08:48;;;;;;;19.10;11.93;;;;;;;1.40;100.00;97906.78;5028313;28;20075;-56
2023/04/09 01:11:37;;;;;;;18.65;11.38;;;;;;;1.29;100.00;97905.38;5015598;28;20513;-56
2023/04/09 01:14:17;;;;;;;19.75;12.63;;;;;;;1.31;100.00;97906.00;5020067;28;20046;-57
2023/04/09 01:16:50;;;;;;;20.10;12.05;;;;;;;1.26;100.00;97911.06;5032096;28;20046;-56
2023/04/09 01:19:26;;;;;;;19.10;12.65;;;;;;;1.23;100.00;97909.59;5026590;28;20045;-56
2023/04/09 01:21:55;;;;;;;20.02;12.52;;;;;;;1.23;100.00;97911.41;5024727;28;20060;-56
2023/04/09 01:24:55;;;;;;;20.88;11.43;;;;;;;1.29;100.00;97916.84;5024812;28;20060;-56
2023/04/09 01:27:41;;;;;;;17.90;11.98;;;;;;;1.26;100.00;97909.22;5021289;28;20107;-55
2023/04/09 01:30:09;;;;;;;16.80;11.88;;;;;;;1.17;100.00;97907.63;5018630;28;20056;-57
2023/04/09 01:32:37;;;;;;;19.13;10.70;;;;;;;1.18;100.00;97901.25;5020111;28;20081;-54
2023/04/09 01:35:06;;;;;;;19.00;11.98;;;;;;;1.20;100.00;97914.44;5024633;28;20058;-57
2023/04/09 01:37:33;;;;;;;19.02;12.15;;;;;;;1.24;100.00;97911.25;5025400;28;20045;-56
2023/04/09 01:40:00;;;;;;;22.15;13.02;;;;;;;1.26;100.00;97909.22;5018426;28;20037;-56
2023/04/09 01:42:28;;;;;;;20.83;12.98;;;;;;;1.31;100.00;97908.69;5022490;28;20076;-58
2023/04/09 01:44:56;;;;;;;18.42;12.57;;;;;;;1.37;100.00;97907.13;5024320;28;20095;-56
2023/04/09 01:47:23;;;;;;;19.25;12.48;;;;;;;1.39;100.00;97911.28;5033566;28;20056;-57
2023/04/09 01:49:50;;;;;;;20.45;13.73;;;;;;;1.50;100.00;97919.88;5034128;28;20095;-56
2023/04/09 01:52:16;;;;;;;18.25;12.65;;;;;;;1.60;100.00;97907.09;5025911;28;20672;-53
2023/04/09 01:54:43;;;;;;;20.95;12.93;;;;;;;1.61;100.00;97910.59;5030083;28;20053;-57
2023/04/09 01:57:09;;;;;;;20.60;12.20;;;;;;;1.72;100.00;97906.66;5023957;28;20107;-55
2023/04/09 01:59:36;;;;;;;20.30;12.50;;;;;;;1.79;100.00;97911.09;5029337;28;20042;-57
2023/04/09 02:02:16;;;;;;;18.05;12.60;;;;;;;1.80;100.00;97912.75;5024709;28;20065;-55
2023/04/09 02:04:48;;;;;;;19.42;12.80;;;;;;;1.83;100.00;97908.88;5021984;28;20107;-54
2023/04/09 02:07:14;;;;;;;;;;;;;;;1.82;100.00;97907.22;5024361;28;20037;-56
2023/04/09 02:09:44;;;;;;;21.95;13.30;;;;;;;1.84;100.00;97904.38;5031279;28;20003;-53
2023/04/09 02:12:15;;;;;;;18.35;12.43;;;;;;;1.81;100.00;97894.91;5023785;28;20117;-55
2023/04/09 02:14:45;;;;;;;21.98;12.85;;;;;;;1.86;100.00;97905.84;5036788;28;20672;-56
2023/04/09 02:17:11;;;;;;;19.65;12.27;;;;;;;1.90;100.00;97907.16;5024446;28;20037;-59
2023/04/09 02:19:39;;;;;;;17.67;12.13;;;;;;;1.91;100.00;97898.13;5026363;28;20528;-55
2023/04/09 02:22:06;;;;;;;20.02;13.20;;;;;;;1.98;100.00;97900.88;5023297;28;20061;-56
2023/04/09 02:24:32;;;;;;;18.88;12.30;;;;;;;2.03;100.00;97900.34;5021182;28;20053;-57
2023/04/09 02:26:59;;;;;;;21.85;12.50;;;;;;;2.00;100.00;97898.03;5024857;28;20073;-56
2023/04/09 02:29:25;;;;;;;18.00;12.13;;;;;;;2.14;100.00;97902.53;5029111;28;20042;-55
2023/04/09 02:31:52;;;;;;;18.55;11.52;;;;;;;2.21;100.00;97900.81;5031348;28;20040;-56
2023/04/09 02:34:19;;;;;;;18.90;12.70;;;;;;;2.15;100.00;97903.38;5024311;28;20512;-57
2023/04/09 02:36:46;;;;;;;19.10;11.85;;;;;;;2.10;100.00;97903.94;5035388;28;20076;-57
2023/04/09 02:39:13;;;;;;;19.88;12.18;;;;;;;2.20;100.00;97893.81;5019272;28;20132;-55
2023/04/09 02:41:39;;;;;;;17.90;11.82;;;;;;;2.18;100.00;97895.81;5033698;28;20047;-56
2023/04/09 02:44:06;;;;;;;18.05;11.57;;;;;;;2.13;100.00;97895.53;5026569;28;20091;-56
2023/04/09 02:46:33;;;;;;;17.30;11.48;;;;;;;2.14;100.00;97891.03;5020710;28;20153;-57
2023/04/09 02:48:59;;;;;;;16.90;11.07;;;;;;;2.20;100.00;97901.81;5014397;28;20042;-55
2023/04/09 02:51:26;;;;;;;18.02;11.63;;;;;;;2.22;100.00;97896.28;5023263;28;20048;-56
2023/04/09 02:53:53;;;;;;;17.38;11.57;;;;;;;2.18;100.00;97893.16;5028343;28;20055;-55
2023/04/09 02:56:19;;;;;;;18.70;12.38;;;;;;;2.27;100.00;97893.88;5022163;28;20107;-55
2023/04/09 02:58:48;;;;;;;18.70;12.35;;;;;;;2.28;100.00;97894.72;5025042;28;20045;-57
2023/04/09 03:01:14;;;;;;;18.30;11.77;;;;;;;2.23;100.00;97886.41;5033558;28;20041;-58
2023/04/09 03:03:42;;;;;;;17.63;10.98;;;;;;;2.24;100.00;97888.09;5024077;28;20075;-56
2023/04/09 03:06:09;;;;;;;17.30;11.38;;;;;;;2.24;100.00;97888.09;5022346;28;20524;-58
2023/04/09 03:08:36;;;;;;;16.83;11.57;;;;;;;2.14;100.00;97888.38;5029802;28;20048;-56
2023/04/09 03:11:02;;;;;;;18.20;11.63;;;;;;;2.20;100.00;97888.47;5022491;28;20128;-56
2023/04/09 03:13:29;;;;;;;18.85;12.40;;;;;;;2.25;100.00;97884.41;5036488;28;20048;-58
2023/04/09 03:15:56;;;;;;;19.30;12.65;;;;;;;2.38;100.00;97881.91;5029575;28;20049;-56
2023/04/09 03:18:22;;;;;;;18.52;12.73;;;;;;;2.40;100.00;97887.06;5026748;28;20052;-57
2023/04/09 03:20:49;;;;;;;17.35;11.77;;;;;;;2.38;100.00;97879.22;5026605;28;20087;-58
2023/04/09 03:23:15;;;;;;;19.57;12.43;;;;;;;2.29;100.00;97881.16;5028978;28;20149;-57
2023/04/09 03:25:45;;;;;;;19.02;12.20;;;;;;;2.32;100.00;97878.13;5024828;28;20075;-57
2023/04/09 03:28:15;;;;;;;19.23;12.02;;;;;;;2.49;100.00;97880.59;5029842;28;20049;-58
2023/04/09 03:30:48;;;;;;;19.85;11.93;;;;;;;2.45;100.00;97876.63;5022044;28;20114;-56
2023/04/09 03:33:14;;;;;;;19.38;12.43;;;;;;;2.49;100.00;97885.94;5028497;28;20128;-55
2023/04/09 03:35:51;;;;;;;20.75;12.18;;;;;;;2.47;100.00;97882.63;5025488;28;20608;-51
2023/04/09 03:38:26;;;;;;;20.48;12.35;;;;;;;2.52;100.00;97882.06;5017854;28;20048;-56
2023/04/09 03:40:55;;;;;;;17.27;12.35;;;;;;;2.36;100.00;97875.09;5031000;28;20504;-54
2023/04/09 03:43:21;;;;;;;18.27;11.70;;;;;;;2.31;100.00;97880.97;5031899;28;20124;-56
2023/04/09 03:45:51;;;;;;;18.52;11.52;;;;;;;2.44;100.00;97877.66;5025508;28;20148;-56
2023/04/09 03:48:24;;;;;;;18.67;12.00;;;;;;;2.35;100.00;97874.25;5026209;28;20049;-56
2023/04/09 03:50:52;;;;;;;20.45;12.38;;;;;;;2.36;100.00;97872.41;5022700;28;20099;-54
2023/04/09 03:53:26;;;;;;;16.40;11.52;;;;;;;2.12;100.00;97875.19;5034341;28;20041;-58
2023/04/09 03:56:00;;;;;;;19.30;11.93;;;;;;;2.13;100.00;97878.72;5031101;28;20041;-56
2023/04/09 03:58:27;;;;;;;16.98;10.88;;;;;;;1.98;100.00;97884.06;5037138;28;20045;-56
2023/04/09 04:00:54;;;;;;;19.92;11.88;;;;;;;2.05;100.00;97884.94;5025581;28;20068;-57
2023/04/09 04:03:43;;;;;;;20.33;12.88;;;;;;;1.91;100.00;97878.59;5017349;28;20111;-57
2023/04/09 04:06:20;;;;;;;20.40;11.95;;;;;;;1.86;100.00;97883.66;5038482;28;20043;-56
2023/04/09 04:09:15;;;;;;;20.35;12.18;;;;;;;1.97;100.00;97885.03;5010192;28;20635;-57
2023/04/09 04:11:47;;;;;;;19.45;12.23;;;;;;;1.93;100.00;97882.75;5031437;28;21202;-56
2023/04/09 04:14:15;;;;;;;21.73;13.32;;;;;;;1.74;100.00;97880.63;5032201;28;20049;-56
2023/04/09 04:16:45;;;;;;;22.40;14.10;;;;;;;1.42;100.00;97886.91;5028939;28;20056;-55
2023/04/09 04:19:15;;;;;;;21.15;12.43;;;;;;;1.23;100.00;97890.06;5029514;28;20045;-57
2023/04/09 04:21:46;;;;;;;21.30;13.40;;;;;;;1.24;100.00;97899.72;5025784;28;20445;-54
2023/04/09 04:24:12;;;;;;;25.40;13.98;;;;;;;1.25;100.00;97896.88;5027587;28;20531;-54
2023/04/09 04:26:39;;;;;;;20.38;14.40;;;;;;;1.40;100.00;97899.59;5020964;28;20649;-58
2023/04/09 04:29:07;;;;;;;26.48;15.32;;;;;;;1.61;100.00;97897.25;5033734;28;20110;-57
2023/04/09 04:31:46;;;;;;;24.33;14.27;;;;;;;1.78;100.00;97900.59;5034630;28;20158;-57
2023/04/09 04:34:15;;;;;;;25.17;15.00;;;;;;;1.90;100.00;97901.81;5032931;28;20071;-58
2023/04/09 04:36:46;;;;;;;21.65;13.50;;;;;;;1.93;100.00;97896.13;5025928;28;20047;-55
2023/04/09 04:39:13;;;;;;;21.55;13.07;;;;;;;1.96;100.00;97900.25;5018178;28;20127;-56
2023/04/09 04:42:00;;;;;;;21.92;13.95;;;;;;;1.85;100.00;97898.88;5026561;28;20887;-58
2023/04/09 04:44:27;;;;;;;23.42;14.05;;;;;;;1.84;100.00;97893.72;5025074;28;20037;-56
2023/04/09 04:47:10;;;;;;;23.60;14.88;;;;;;;1.91;100.00;97898.13;5017101;28;20421;-58
2023/04/09 04:49:37;;;;;;;24.65;14.75;;;;;;;2.08;100.00;97897.94;5028655;28;20140;-56
2023/04/09 04:52:06;;;;;;;23.48;14.10;;;;;;;2.12;100.00;97901.91;5027806;28;20124;-56
2023/04/09 04:54:33;;;;;;;21.35;13.57;;;;;;;2.18;100.00;97889.66;5026898;28;20038;-58
2023/04/09 04:57:00;;;;;;;20.17;13.13;;;;;;;2.26;100.00;97899.41;5023918;28;20136;-56
2023/04/09 04:59:39;;;;;;;20.90;13.40;;;;;;;2.18;100.00;97895.81;5018529;28;20388;-55
2023/04/09 05:02:08;;;;;;;20.02;14.27;;;;;;;2.17;100.00;97898.66;5028118;28;20577;-56
2023/04/09 05:05:13;;;;;;;20.08;12.88;;;;;;;2.16;100.00;97900.53;5029644;28;20410;-56
2023/04/09 05:07:46;;;;;;;19.50;12.63;;;;;;;2.18;100.00;97903.84;5022175;28;20420;-56
2023/04/09 05:10:13;;;;;;;22.15;13.98;;;;;;;2.34;100.00;97897.50;5044735;28;20041;-56
2023/04/09 05:12:41;;;;;;;20.20;11.88;;;;;;;2.36;100.00;97891.94;5024561;28;20060;-54
2023/04/09 05:15:09;;;;;;;19.38;12.60;;;;;;;2.08;100.00;97896.13;5034321;28;20507;-54
2023/04/09 05:17:37;;;;;;;19.98;12.75;;;;;;;1.91;100.00;97898.13;5030381;28;20695;-56
2023/04/09 05:20:05;;;;;;;23.33;13.88;;;;;;;1.82;100.00;97896.56;5035302;28;20041;-56
2023/04/09 05:22:42;;;;;;;20.08;12.88;;;;;;;1.72;100.00;97907.50;5029596;28;20041;-57
2023/04/09 05:25:09;;;;;;;20.38;13.60;;;;;;;1.78;100.00;97904.09;5037708;28;20164;-57
2023/04/09 05:27:38;;;;;;;21.35;14.07;;;;;;;1.89;100.00;97905.50;5033220;28;20041;-56
2023/04/09 05:30:06;;;;;;;24.17;15.50;;;;;;;2.07;100.00;97912.31;5033970;28;20046;-57
2023/04/09 05:32:33;;;;;;;24.33;15.45;;;;;;;2.04;100.00;97910.00;5031292;28;20052;-58
2023/04/09 05:34:59;;;;;;;22.02;12.95;;;;;;;1.99;100.00;97913.22;5028016;28;20033;-58
2023/04/09 05:37:28;;;;;;;23.33;13.57;;;;;;;1.90;100.00;97909.81;5028864;28;20471;-58
2023/04/09 05:39:55;;;;;;;24.70;14.48;;;;;;;2.02;100.00;97907.53;5035142;28;20044;-58
2023/04/09 05:42:23;;;;;;;22.65;14.65;;;;;;;2.11;100.00;97912.78;5027878;28;20275;-57
2023/04/09 05:45:02;;;;;;;22.73;15.45;;;;;;;2.33;100.00;97908.34;5034336;28;20061;-57
2023/04/09 05:47:28;;;;;;;21.33;14.25;;;;;;;2.29;100.00;97912.41;5027958;28;20053;-56
2023/04/09 05:50:07;;;;;;;23.83;13.68;;;;;;;2.03;100.00;97911.03;5032160;28;20052;-56
2023/04/09 05:52:34;;;;;;;21.90;13.38;;;;;;;1.85;100.00;97914.88;5035347;28;20069;-57
2023/04/09 05:55:02;;;;;;;23.42;14.50;;;;;;;1.94;100.00;97918.28;5035608;28;20048;-57
2023/04/09 05:57:40;;;;;;;24.52;15.30;;;;;;;2.14;100.00;97915.91;5028136;28;20052;-56
2023/04/09 06:00:07;;;;;;;22.02;14.38;;;;;;;2.18;100.00;97913.72;5030877;28;20049;-56
2023/04/09 06:02:51;;;;;;;25.92;15.68;;;;;;;2.29;100.00;97910.56;5031877;28;20130;-57
2023/04/09 06:05:18;;;;;;;23.17;14.93;;;;;;;2.30;100.00;97914.06;5034386;28;20044;-57
2023/04/09 06:07:46;;;;;;;23.00;15.45;;;;;;;2.34;100.00;97918.03;5035662;28;20049;-56
2023/04/09 06:10:13;;;;;;;24.38;15.57;;;;;;;2.51;100.00;97923.19;5036828;28;20045;-56
2023/04/09 06:12:40;;;;;;;25.65;16.00;;;;;;;2.60;100.00;97919.38;5029812;28;20406;-55
2023/04/09 06:15:08;;;;;;;25.33;15.93;;;;;;;2.75;100.00;97918.50;5021638;28;20128;-56
2023/04/09 06:17:34;;;;;;;23.45;15.60;;;;;;;2.79;100.00;97920.63;5026388;28;20110;-55
2023/04/09 06:20:01;;;;;;;23.05;15.07;;;;;;;2.98;100.00;97918.38;5030909;28;20568;-58
2023/04/09 06:22:28;;;;;;;23.75;15.15;;;;;;;2.98;100.00;97913.00;5032139;28;20052;-58
2023/04/09 06:24:54;;;;;;;24.95;15.07;;;;;;;2.93;100.00;97920.78;5038187;28;20077;-57
2023/04/09 06:27:21;;;;;;;24.48;16.35;;;;;;;3.07;100.00;97914.56;5026234;28;20719;-58
2023/04/09 06:29:48;;;;;;;26.35;17.25;;;;;;;3.24;100.00;97917.81;5016576;28;21139;-56
2023/04/09 06:32:15;;;;;;;25.75;17.27;;;;;;;3.38;100.00;97918.78;5027521;28;20069;-58
2023/04/09 06:34:42;;;;;;;27.10;17.95;;;;;;;3.63;100.00;97914.84;5031116;28;20065;-58
2023/04/09 06:37:08;;;;;;;24.70;16.08;;;;;;;3.86;100.00;97925.34;5029433;28;20487;-54
2023/04/09 06:39:35;;;;;;;26.00;17.65;;;;;;;4.11;100.00;97927.56;5029975;28;20060;-58
2023/04/09 06:42:04;;;;;;;27.77;19.20;;;;;;;4.35;100.00;97919.25;5029455;28;20049;-58
2023/04/09 06:44:37;;;;;;;31.08;23.02;;;;;;;4.57;100.00;97919.97;5030300;28;20053;-58
2023/04/09 06:47:04;;;;;;;29.33;23.98;;;;;;;4.77;100.00;97925.44;5040291;28;20487;-57
2023/04/09 06:49:30;;;;;;;29.63;20.98;;;;;;;4.99;100.00;97927.97;5026755;28;20124;-56
2023/04/09 06:51:57;;;;;;;24.60;18.25;;;;;;;5.16;100.00;97924.94;5027854;28;20042;-57
2023/04/09 06:54:23;;;;;;;23.52;17.30;;;;;;;5.25;100.00;97930.91;5030032;28;20049;-54
2023/04/09 06:56:50;;;;;;;21.15;16.00;;;;;;;5.28;100.00;97931.34;5026842;28;20094;-57
2023/04/09 06:59:17;;;;;;;21.23;16.83;;;;;;;5.37;100.00;97928.44;5036563;28;20060;-58
2023/04/09 07:01:44;;;;;;;23.33;16.33;;;;;;;5.51;100.00;97930.13;5031638;28;20120;-58
2023/04/09 07:04:10;;;;;;;24.58;15.43;;;;;;;5.57;100.00;97936.56;5031516;28;20037;-57
2023/04/09 07:06:39;;;;;;;20.77;16.17;;;;;;;5.70;100.00;97933.03;5037999;28;20040;-58
2023/04/09 07:09:05;;;;;;;21.65;15.68;;;;;;;5.83;100.00;97942.97;5035557;28;20038;-57
2023/04/09 07:11:32;;;;;;;19.23;14.30;;;;;;;5.94;100.00;97938.84;5030869;28;20568;-57
2023/04/09 07:13:58;;;;;;;21.10;13.98;;;;;;;6.02;100.00;97941.31;5037237;28;20056;-57
2023/04/09 07:16:25;;;;;;;19.33;12.57;;;;;;;6.08;100.00;97937.81;5032195;28;20073;-58
2023/04/09 07:18:51;;;;;;;19.48;14.00;;;;;;;6.14;100.00;97935.31;5023237;28;20076;-57
2023/04/09 07:21:19;;;;;;;21.35;15.45;;;;;;;6.20;100.00;97929.91;5021778;28;20456;-58
2023/04/09 07:23:45;;;;;;;16.75;13.30;;;;;;;6.30;99.57;97934.88;5019694;28;20045;-55
2023/04/09 07:26:12;;;;;;;17.92;12.52;;;;;;;6.31;98.05;97930.31;5024373;28;20607;-58
2023/04/09 07:28:39;;;;;;;18.17;12.27;;;;;;;6.32;98.26;97935.50;5019464;28;20103;-57
2023/04/09 07:31:06;;;;;;;17.88;11.77;;;;;;;6.45;97.31;97933.81;5021897;28;20049;-56
2023/04/09 07:33:33;;;;;;;15.55;11.35;;;;;;;6.60;95.62;97928.97;5018991;28;20556;-57
2023/04/09 07:35:59;;;;;;;16.05;11.23;;;;;;;6.65;94.13;97922.97;5026566;28;20052;-57
2023/04/09 07:38:30;;;;;;;16.27;11.25;;;;;;;6.78;93.69;97934.72;5017455;28;20124;-57
2023/04/09 07:40:57;;;;;;;17.13;12.45;;;;;;;6.85;94.05;97933.66;5019838;28;20080;-58
2023/04/09 07:43:23;;;;;;;17.90;12.98;;;;;;;6.81;92.84;97935.13;5027039;28;20052;-56
2023/04/09 07:45:50;;;;;;;19.30;12.77;;;;;;;6.88;91.72;97935.94;5025079;28;20057;-55
2023/04/09 07:48:17;;;;;;;17.77;13.18;;;;;;;7.02;92.58;97942.09;5023301;28;20051;-56
2023/04/09 07:50:47;;;;;;;17.33;12.57;;;;;;;7.10;88.98;97940.16;5018718;28;20042;-57
2023/04/09 07:53:13;;;;;;;15.05;10.95;;;;;;;7.17;88.95;97943.66;5023952;28;20464;-56
2023/04/09 07:55:40;;;;;;;17.08;12.45;;;;;;;7.23;88.38;97941.97;5016885;28;20051;-57
2023/04/09 07:58:06;;;;;;;16.25;10.95;;;;;;;7.36;88.03;97935.66;5023688;28;20122;-55
2023/04/09 08:00:33;;;;;;;16.58;10.45;;;;;;;7.41;86.63;97938.56;5027847;28;20570;-57
2023/04/09 08:03:00;;;;;;;16.08;10.82;;;;;;;7.40;85.39;97942.28;5018796;28;20060;-58
2023/04/09 08:05:27;;;;;;;13.38;9.02;;;;;;;7.46;84.02;97935.19;5028651;28;20120;-58
2023/04/09 08:07:54;;;;;;;14.25;10.02;;;;;;;7.57;86.86;97937.19;5027328;28;20065;-56
2023/04/09 08:10:20;;;;;;;15.48;10.32;;;;;;;7.64;86.95;97937.13;5023727;28;20398;-56
2023/04/09 08:12:47;;;;;;;14.00;10.10;;;;;;;7.63;84.21;97938.19;5020364;28;20072;-58
2023/04/09 08:15:14;;;;;;;17.35;10.05;;;;;;;7.80;84.13;97938.47;5024560;28;20061;-56
2023/04/09 08:17:41;;;;;;;13.55;8.13;;;;;;;7.90;80.13;97940.66;5017964;28;20201;-58
2023/04/09 08:20:08;;;;;;;12.68;8.27;;;;;;;8.00;77.90;97948.28;5023739;28;20053;-57
2023/04/09 08:22:34;;;;;;;11.50;8.80;;;;;;;8.06;77.54;97947.38;5017948;28;20033;-57
2023/04/09 08:25:01;;;;;;;11.85;8.48;;;;;;;7.77;77.68;97961.31;5020203;28;20144;-57
2023/04/09 08:27:28;;;;;;;15.35;12.10;;;;;;;7.83;77.55;97956.91;5030452;28;20041;-57
2023/04/09 08:29:55;;;;;;;17.50;12.38;;;;;;;7.98;76.68;97959.28;5028165;28;20060;-57
2023/04/09 08:32:21;;;;;;;14.57;10.77;;;;;;;8.17;77.65;97956.59;5026765;28;20053;-58
2023/04/09 08:34:48;;;;;;;13.52;10.65;;;;;;;8.25;77.32;97950.94;5029431;28;20058;-55
2023/04/09 08:37:15;;;;;;;13.10;9.75;;;;;;;8.27;77.26;97958.81;5027887;28;20107;-57
2023/04/09 08:39:41;;;;;;;12.45;8.82;;;;;;;8.19;76.89;97963.44;5022940;28;20045;-56
2023/04/09 08:42:11;;;;;;;12.68;8.93;;;;;;;8.38;75.90;97958.06;5028493;28;20657;-56
2023/04/09 08:44:37;;;;;;;11.02;7.78;;;;;;;8.55;76.46;97958.34;5029046;28;20044;-57
2023/04/09 08:47:10;;;;;;;9.82;6.53;;;;;;;8.57;70.38;97960.81;5028513;28;20128;-55
2023/04/09 08:49:39;;;;;;;9.63;6.60;;;;;;;8.67;70.37;97955.69;5022192;28;20072;-58
2023/04/09 08:52:06;;;;;;;11.15;6.38;;;;;;;8.75;68.30;97957.28;5024829;28;20068;-57
2023/04/09 08:54:33;;;;;;;7.88;5.43;;;;;;;8.61;66.77;97956.63;5027967;28;20133;-56
2023/04/09 08:57:04;;;;;;;8.00;5.05;;;;;;;8.63;62.62;97951.00;5022219;28;20045;-53
2023/04/09 08:59:30;;;;;;;9.47;5.17;;;;;;;8.62;64.83;97952.06;5031757;28;20451;-57
2023/04/09 09:02:07;;;;;;;7.78;5.00;;;;;;;8.79;62.94;97960.34;5037899;28;20779;-59
2023/04/09 09:04:47;;;;;;;7.88;5.22;;;;;;;8.77;63.67;97962.47;5033885;28;20649;-58
2023/04/09 09:07:15;;;;;;;9.48;5.40;;;;;;;9.03;62.83;97965.91;5034152;28;20115;-57
2023/04/09 09:09:55;;;;;;;9.13;5.75;;;;;;;9.29;63.14;97955.78;5035869;28;20106;-57
2023/04/09 09:12:38;;;;;;;7.47;4.72;;;;;;;9.49;59.81;97953.63;5026232;28;20073;-59
2023/04/09 09:15:24;;;;;;;7.57;4.47;;;;;;;9.36;59.43;97957.34;5024046;28;20524;-59
2023/04/09 09:17:56;;;;;;;8.05;4.60;;;;;;;9.35;59.79;97968.38;5029977;28;20041;-59
2023/04/09 09:20:23;;;;;;;7.20;4.45;;;;;;;9.35;59.25;97962.97;5034608;28;20041;-59
2023/04/09 09:22:55;;;;;;;7.05;4.60;;;;;;;9.41;58.80;97956.66;5023240;28;20100;-55
2023/04/09 09:25:23;;;;;;;7.15;4.35;;;;;;;9.71;57.88;97952.28;5020815;28;20112;-59
2023/04/09 09:27:51;;;;;;;6.00;3.92;;;;;;;9.90;57.38;97961.13;5031215;28;20045;-59
2023/04/09 09:30:25;;;;;;;6.65;4.28;;;;;;;9.77;56.85;97954.06;5035644;28;20133;-59
2023/04/09 09:33:08;;;;;;;6.88;4.70;;;;;;;9.80;56.33;97956.28;5028718;28;20076;-58
2023/04/09 09:35:48;;;;;;;5.65;2.83;;;;;;;9.70;51.33;97956.84;5030330;28;20086;-59
2023/04/09 09:38:15;;;;;;;6.88;3.28;;;;;;;9.75;51.75;97953.44;5026183;28;20053;-58
2023/04/09 09:40:43;;;;;;;6.00;3.60;;;;;;;9.87;52.57;97954.31;5028705;28;20128;-60
2023/04/09 09:43:12;;;;;;;5.38;3.45;;;;;;;10.23;51.38;97959.75;5034682;28;20048;-59
2023/04/09 09:45:42;;;;;;;5.68;2.70;;;;;;;10.20;50.15;97960.22;5034454;28;20072;-57
2023/04/09 09:48:10;;;;;;;5.70;2.88;;;;;;;10.09;50.00;97955.59;5027058;28;20042;-57
2023/04/09 09:50:38;;;;;;;5.40;3.15;;;;;;;9.85;50.19;97953.69;5025742;28;20067;-59
2023/04/09 09:53:05;;;;;;;5.47;2.95;;;;;;;9.98;50.18;97965.34;5033733;28;20049;-58
2023/04/09 09:55:36;;;;;;;5.05;3.13;;;;;;;10.14;50.43;97964.66;5029130;28;20046;-59
2023/04/09 09:58:11;;;;;;;5.53;3.07;;;;;;;10.36;49.62;97958.66;5028369;28;20080;-59
2023/04/09 10:00:39;;;;;;;5.80;3.00;;;;;;;10.64;49.28;97954.44;5028487;28;20077;-59
2023/04/09 10:03:14;;;;;;;5.43;3.55;;;;;;;10.33;48.57;97955.63;5031362;28;20041;-59
2023/04/09 10:05:41;;;;;;;3.88;2.20;;;;;;;10.31;49.29;97958.56;5031496;28;20041;-59
2023/04/09 10:08:08;;;;;;;4.45;2.42;;;;;;;10.21;48.60;97956.44;5031515;28;20059;-59
2023/04/09 10:10:40;;;;;;;4.68;2.70;;;;;;;10.31;47.97;97957.75;5020675;28;20052;-59
2023/04/09 10:13:32;;;;;;;6.03;2.90;;;;;;;10.26;48.17;97959.28;5027564;28;20401;-59
2023/04/09 10:15:59;;;;;;;;;;;;;;;10.40;48.06;97954.44;5034380;28;20076;-59
2023/04/09 10:18:26;;;;;;;5.03;2.85;;;;;;;10.36;48.16;97955.97;5038079;28;19939;-59
2023/04/09 10:21:00;;;;;;;4.70;2.78;;;;;;;10.50;48.70;97956.56;5027533;28;20045;-59
2023/04/09 10:23:37;;;;;;;6.57;4.00;;;;;;;10.22;49.11;97954.56;5025043;28;20477;-59
2023/04/09 10:26:04;;;;;;;6.30;3.17;;;;;;;10.17;49.14;97952.56;5016834;28;20420;-59
2023/04/09 10:28:31;;;;;;;5.10;3.08;;;;;;;10.25;47.99;97954.91;5022202;28;20131;-58
2023/04/09 10:30:58;;;;;;;6.78;3.13;;;;;;;10.12;47.22;97945.16;5035827;28;21002;-58
2023/04/09 10:33:26;;;;;;;4.57;2.85;;;;;;;10.28;47.39;97946.31;5024765;28;20034;-59
2023/04/09 10:35:58;;;;;;;4.70;2.47;;;;;;;10.25;46.47;97948.69;5026789;28;20045;-57
2023/04/09 10:38:37;;;;;;;;;;;;;;;10.08;48.29;97946.69;5031214;28;20051;-58
2023/04/09 10:41:26;;;;;;;6.00;3.80;;;;;;;10.38;49.60;97948.44;5026631;28;19978;-59
2023/04/09 10:43:52;;;;;;;7.15;4.22;;;;;;;10.72;48.86;97944.31;5025643;28;20083;-59
2023/04/09 10:46:33;;;;;;;8.52;5.05;;;;;;;10.54;50.25;97946.09;5033997;28;20132;-58
2023/04/09 10:49:18;;;;;;;6.45;4.25;;;;;;;10.68;51.35;97946.66;5029638;28;20051;-59
2023/04/09 10:51:51;;;;;;;7.50;4.70;;;;;;;10.75;50.20;97941.94;5025860;28;20052;-58
2023/04/09 10:54:33;;;;;;;7.80;4.78;;;;;;;10.43;51.38;97928.75;5028833;28;20516;-59
2023/04/09 10:57:18;;;;;;;6.95;4.63;;;;;;;10.58;51.19;97922.88;5031170;28;20044;-57
2023/04/09 10:59:54;;;;;;;7.45;4.47;;;;;;;10.44;51.69;97925.06;5018888;28;20075;-58
2023/04/09 11:02:30;;;;;;;7.97;4.70;;;;;;;10.53;51.31;97930.91;5024646;28;20048;-60
2023/04/09 11:05:19;;;;;;;5.75;3.80;;;;;;;10.30;49.56;97929.03;5035934;28;20041;-59
2023/04/09 11:07:56;;;;;;;5.18;3.45;;;;;;;10.26;47.10;97920.56;5028037;28;20551;-57
2023/04/09 11:10:23;;;;;;;4.65;2.42;;;;;;;10.77;45.42;97937.09;5037315;28;20410;-56
2023/04/09 11:12:50;;;;;;;4.88;2.45;;;;;;;10.95;43.73;97938.03;5032064;28;22064;-58
2023/04/09 11:15:17;;;;;;;4.38;2.58;;;;;;;10.96;43.43;97926.09;5038995;28;20088;-59
2023/04/09 11:17:48;;;;;;;4.55;2.78;;;;;;;11.27;42.77;97933.97;5024451;28;20922;-58
2023/04/09 11:20:18;;;;;;;4.18;2.58;;;;;;;11.29;42.57;97926.44;5020963;28;20408;-57
2023/04/09 11:22:45;;;;;;;4.18;2.67;;;;;;;11.23;43.19;97932.81;5027887;28;20045;-58
2023/04/09 11:25:23;;;;;;;5.13;3.08;;;;;;;11.54;42.66;97926.06;5029180;28;20495;-58
2023/04/09 11:27:50;;;;;;;4.90;2.70;;;;;;;11.53;43.09;97924.44;5026083;28;20049;-57
2023/04/09 11:30:17;;;;;;;6.97;2.30;;;;;;;11.60;39.94;97926.97;5031333;28;20400;-56
2023/04/09 11:32:44;;;;;;;3.83;2.03;;;;;;;11.73;40.47;97927.75;5030841;28;20041;-54
2023/04/09 11:35:16;;;;;;;4.22;2.65;;;;;;;11.64;40.89;97925.44;5036651;28;20049;-57